createdAt,value
2018-10-12T00:00:05.509Z,11.10
2018-10-12T00:02:34.065Z,11.00
2018-10-12T00:05:02.704Z,11.00
2018-10-12T00:07:31.231Z,10.80
2018-10-12T00:09:59.773Z,10.80
2018-10-12T00:12:28.345Z,10.70
2018-10-12T00:14:56.869Z,10.60
2018-10-12T00:17:25.406Z,10.50
2018-10-12T00:19:53.956Z,10.50
2018-10-12T00:22:22.546Z,10.40
2018-10-12T00:24:51.825Z,10.30
2018-10-12T00:27:20.405Z,10.30
2018-10-12T00:29:48.919Z,10.20
2018-10-12T00:32:17.526Z,10.10
2018-10-12T00:34:46.036Z,10.10
2018-10-12T00:37:14.577Z,10.10
2018-10-12T00:39:43.129Z,10.00
2018-10-12T00:42:11.681Z,9.90
2018-10-12T00:44:40.206Z,9.90
2018-10-12T00:47:08.756Z,9.80
2018-10-12T00:49:37.312Z,9.80
2018-10-12T00:52:05.850Z,9.80
2018-10-12T00:54:34.361Z,9.70
2018-10-12T00:57:02.907Z,9.70
2018-10-12T00:59:31.556Z,9.70
2018-10-12T01:02:00.101Z,9.60
2018-10-12T01:04:28.630Z,9.60
2018-10-12T01:06:57.290Z,9.60
2018-10-12T01:09:26.791Z,9.50
2018-10-12T01:12:06.531Z,9.50
2018-10-12T01:14:35.097Z,9.50
2018-10-12T01:17:03.844Z,9.40
2018-10-12T01:19:32.493Z,9.40
2018-10-12T01:22:01.069Z,9.30
2018-10-12T01:24:29.650Z,9.30
2018-10-12T01:26:58.297Z,9.20
2018-10-12T01:29:26.885Z,9.20
2018-10-12T01:31:55.407Z,9.10
2018-10-12T01:34:23.936Z,9.10
2018-10-12T01:36:52.491Z,9.10
2018-10-12T01:39:21.074Z,9.00
2018-10-12T01:41:49.735Z,9.10
2018-10-12T01:44:18.328Z,9.00
2018-10-12T01:46:46.878Z,9.00
2018-10-12T01:49:15.418Z,8.90
2018-10-12T01:51:43.954Z,8.80
2018-10-12T01:54:12.486Z,8.80
2018-10-12T01:56:41.023Z,8.80
2018-10-12T01:59:09.605Z,8.70
2018-10-12T02:01:38.137Z,8.70
2018-10-12T02:04:06.674Z,8.60
2018-10-12T02:06:35.258Z,8.60
2018-10-12T02:09:04.825Z,8.60
2018-10-12T02:11:33.359Z,8.50
2018-10-12T02:14:01.977Z,8.50
2018-10-12T02:16:30.517Z,8.40
2018-10-12T02:18:59.029Z,8.40
2018-10-12T02:21:27.704Z,8.40
2018-10-12T02:23:56.330Z,8.30
2018-10-12T02:26:24.874Z,8.30
2018-10-12T02:28:53.393Z,8.20
2018-10-12T02:31:21.986Z,8.20
2018-10-12T02:33:50.502Z,8.20
2018-10-12T02:36:19.245Z,8.10
2018-10-12T02:38:47.803Z,8.10
2018-10-12T02:41:16.506Z,8.10
2018-10-12T02:43:45.109Z,8.10
2018-10-12T02:46:13.649Z,8.00
2018-10-12T02:48:42.246Z,7.90
2018-10-12T02:51:11.277Z,7.90
2018-10-12T02:53:39.847Z,7.90
2018-10-12T02:56:12.177Z,7.90
2018-10-12T02:58:40.698Z,7.80
2018-10-12T03:01:09.203Z,7.80
2018-10-12T03:03:37.751Z,7.80
2018-10-12T03:06:06.325Z,7.70
2018-10-12T03:08:35.288Z,7.70
2018-10-12T03:11:03.847Z,7.70
2018-10-12T03:13:32.434Z,7.60
2018-10-12T03:16:00.974Z,7.60
2018-10-12T03:18:29.486Z,7.60
2018-10-12T03:20:58.270Z,7.50
2018-10-12T03:23:27.553Z,7.50
2018-10-12T03:25:56.063Z,7.50
2018-10-12T03:28:27.226Z,7.60
2018-10-12T03:30:56.627Z,7.60
2018-10-12T03:33:25.906Z,7.60
2018-10-12T03:35:54.555Z,7.60
2018-10-12T03:38:23.183Z,7.60
2018-10-12T03:40:51.804Z,7.60
2018-10-12T03:43:20.388Z,7.50
2018-10-12T03:45:49.053Z,7.50
2018-10-12T03:48:17.641Z,7.50
2018-10-12T03:50:46.201Z,7.40
2018-10-12T03:53:15.315Z,7.40
2018-10-12T03:55:43.937Z,7.40
2018-10-12T03:58:12.541Z,7.40
2018-10-12T04:00:41.113Z,7.40
2018-10-12T04:03:09.765Z,7.40
2018-10-12T04:05:38.311Z,7.30
2018-10-12T04:08:06.850Z,7.30
2018-10-12T04:10:35.390Z,7.30
2018-10-12T04:13:04.058Z,7.30
2018-10-12T04:15:32.629Z,7.20
2018-10-12T04:18:01.361Z,7.20
2018-10-12T04:20:30.043Z,7.20
2018-10-12T04:22:58.634Z,7.20
2018-10-12T04:25:27.197Z,7.20
2018-10-12T04:27:55.770Z,7.20
2018-10-12T04:30:24.314Z,7.10
2018-10-12T04:32:52.866Z,7.10
2018-10-12T04:35:21.383Z,7.10
2018-10-12T04:37:50.166Z,7.10
2018-10-12T04:41:11.926Z,7.00
2018-10-12T04:43:40.850Z,7.00
2018-10-12T04:46:12.984Z,6.90
2018-10-12T04:48:42.504Z,6.90
2018-10-12T04:51:21.471Z,6.90
2018-10-12T04:53:50.445Z,6.90
2018-10-12T04:56:20.097Z,6.90
2018-10-12T04:58:48.713Z,6.90
2018-10-12T05:01:17.326Z,6.80
2018-10-12T05:03:45.861Z,6.80
2018-10-12T05:06:14.491Z,6.80
2018-10-12T05:08:43.022Z,6.70
2018-10-12T05:11:11.622Z,6.70
2018-10-12T05:13:40.154Z,6.70
2018-10-12T05:16:08.737Z,6.70
2018-10-12T05:18:37.318Z,6.80
2018-10-12T05:21:06.120Z,6.80
2018-10-12T05:23:35.046Z,6.80
2018-10-12T05:26:03.721Z,6.80
2018-10-12T05:28:33.940Z,6.90
2018-10-12T05:31:02.546Z,6.90
2018-10-12T05:33:31.141Z,7.00
2018-10-12T05:35:59.809Z,7.00
2018-10-12T05:38:29.840Z,7.00
2018-10-12T05:40:58.631Z,7.00
2018-10-12T05:43:27.381Z,7.00
2018-10-12T05:45:55.767Z,6.90
2018-10-12T05:48:35.490Z,6.90
2018-10-12T05:51:04.789Z,6.90
2018-10-12T05:53:34.422Z,6.90
2018-10-12T05:56:03.466Z,6.90
2018-10-12T05:58:32.304Z,6.90
2018-10-12T06:01:00.892Z,6.90
2018-10-12T06:03:29.687Z,6.90
2018-10-12T06:05:58.312Z,6.90
2018-10-12T06:08:27.132Z,6.90
2018-10-12T06:10:55.696Z,6.80
2018-10-12T06:13:24.258Z,6.90
2018-10-12T06:15:53.054Z,6.90
2018-10-12T06:18:21.745Z,7.00
2018-10-12T06:20:50.317Z,7.00
2018-10-12T06:23:18.891Z,7.00
2018-10-12T06:25:47.517Z,7.10
2018-10-12T06:28:16.874Z,7.10
2018-10-12T06:30:45.475Z,7.20
2018-10-12T06:33:14.046Z,7.30
2018-10-12T06:35:42.684Z,7.30
2018-10-12T06:38:11.302Z,7.40
2018-10-12T06:40:39.943Z,7.40
2018-10-12T06:43:08.459Z,7.50
2018-10-12T06:45:37.146Z,7.60
2018-10-12T06:48:05.726Z,7.70
2018-10-12T06:50:34.401Z,7.80
2018-10-12T06:53:03.031Z,7.90
2018-10-12T06:55:31.596Z,8.00
2018-10-12T06:58:00.194Z,8.10
2018-10-12T07:00:28.813Z,8.20
2018-10-12T07:02:57.557Z,8.30
2018-10-12T07:05:26.262Z,8.30
2018-10-12T07:07:54.855Z,8.50
2018-10-12T07:10:23.621Z,8.60
2018-10-12T07:12:52.186Z,8.70
2018-10-12T07:15:20.741Z,8.80
2018-10-12T07:17:49.334Z,8.90
2018-10-12T07:20:17.966Z,9.20
2018-10-12T07:22:46.498Z,9.30
2018-10-12T07:25:15.083Z,9.40
2018-10-12T07:27:43.682Z,9.70
2018-10-12T07:30:12.286Z,9.80
2018-10-12T07:32:40.858Z,9.80
2018-10-12T07:35:09.483Z,9.80
2018-10-12T07:37:38.141Z,9.90
2018-10-12T07:40:07.008Z,10.10
2018-10-12T07:42:35.613Z,10.20
2018-10-12T07:45:04.271Z,10.40
2018-10-12T07:47:32.955Z,10.70
2018-10-12T07:50:01.442Z,11.00
2018-10-12T07:52:30.863Z,11.20
2018-10-12T07:54:59.409Z,11.50
2018-10-12T07:57:33.489Z,11.70
2018-10-12T08:00:02.253Z,11.90
2018-10-12T08:02:30.828Z,12.10
2018-10-12T08:04:59.417Z,12.30
2018-10-12T08:07:28.006Z,12.70
2018-10-12T08:09:56.544Z,13.00
2018-10-12T08:12:25.130Z,13.30
2018-10-12T08:14:53.713Z,13.60
2018-10-12T08:17:22.366Z,14.00
2018-10-12T08:19:50.970Z,14.40
2018-10-12T08:22:19.529Z,14.80
2018-10-12T08:24:48.149Z,15.10
2018-10-12T08:27:16.754Z,15.50
2018-10-12T08:29:45.345Z,15.90
2018-10-12T08:32:14.119Z,16.10
2018-10-12T08:34:42.727Z,16.30
2018-10-12T08:37:11.249Z,16.80
2018-10-12T08:39:39.898Z,17.10
2018-10-12T08:42:08.535Z,17.50
2018-10-12T08:44:37.115Z,17.80
2018-10-12T08:47:05.747Z,18.10
2018-10-12T08:49:34.364Z,18.40
2018-10-12T08:52:02.902Z,18.60
2018-10-12T08:54:31.503Z,18.90
2018-10-12T08:57:00.051Z,19.30
2018-10-12T08:59:28.690Z,19.50
2018-10-12T09:01:57.242Z,19.90
2018-10-12T09:04:25.786Z,19.90
2018-10-12T09:06:54.498Z,20.20
2018-10-12T09:09:23.133Z,20.30
2018-10-12T09:11:51.675Z,20.50
2018-10-12T09:14:20.284Z,20.80
2018-10-12T09:16:48.886Z,20.90
2018-10-12T09:19:17.413Z,21.30
2018-10-12T09:21:46.117Z,21.50
2018-10-12T09:24:14.550Z,21.60
2018-10-12T09:26:43.125Z,21.90
2018-10-12T09:29:11.659Z,22.20
2018-10-12T09:31:40.276Z,22.50
2018-10-12T09:34:09.949Z,22.80
2018-10-12T09:36:38.563Z,23.00
2018-10-12T09:39:07.636Z,23.20
2018-10-12T09:41:36.274Z,23.60
2018-10-12T09:44:05.105Z,23.60
2018-10-12T09:46:33.662Z,23.80
2018-10-12T09:49:02.197Z,24.00
2018-10-12T09:51:30.890Z,24.00
2018-10-12T09:53:59.432Z,24.10
2018-10-12T09:56:28.016Z,24.10
2018-10-12T09:58:56.589Z,24.40
2018-10-12T10:01:30.256Z,24.50
2018-10-12T10:04:04.128Z,24.60
2018-10-12T10:06:32.786Z,24.50
2018-10-12T10:09:01.441Z,24.40
2018-10-12T10:11:29.933Z,24.40
2018-10-12T10:13:58.739Z,24.40
2018-10-12T10:16:27.149Z,24.60
2018-10-12T10:18:55.979Z,24.40
2018-10-12T10:21:24.493Z,24.50
2018-10-12T10:23:53.065Z,24.60
2018-10-12T10:26:21.730Z,24.60
2018-10-12T10:28:50.302Z,24.70
2018-10-12T10:31:18.863Z,24.70
2018-10-12T10:33:47.489Z,24.60
2018-10-12T10:36:16.169Z,24.60
2018-10-12T10:38:44.851Z,24.50
2018-10-12T10:41:13.374Z,24.90
2018-10-12T10:43:42.086Z,24.90
2018-10-12T10:46:10.684Z,24.80
2018-10-12T10:48:39.289Z,24.90
2018-10-12T10:51:08.202Z,24.70
2018-10-12T10:53:36.788Z,24.80
2018-10-12T10:56:05.669Z,25.00
2018-10-12T10:58:34.213Z,25.00
2018-10-12T11:01:03.019Z,25.00
2018-10-12T11:03:31.425Z,25.20
2018-10-12T11:06:00.299Z,25.20
2018-10-12T11:08:28.861Z,25.20
2018-10-12T11:10:57.578Z,25.20
2018-10-12T11:13:26.174Z,24.70
2018-10-12T11:15:54.960Z,24.50
2018-10-12T11:18:23.603Z,24.60
2018-10-12T11:20:52.347Z,24.90
2018-10-12T11:23:21.005Z,24.70
2018-10-12T11:25:49.550Z,24.70
2018-10-12T11:28:18.086Z,24.60
2018-10-12T11:30:46.811Z,24.70
2018-10-12T11:33:15.541Z,24.30
2018-10-12T11:35:44.069Z,24.50
2018-10-12T11:38:12.812Z,24.70
2018-10-12T11:40:41.470Z,25.10
2018-10-12T11:43:27.168Z,25.10
2018-10-12T11:45:56.026Z,25.20
2018-10-12T11:48:24.594Z,25.10
2018-10-12T11:50:53.206Z,24.90
2018-10-12T11:53:21.896Z,25.20
2018-10-12T11:55:50.502Z,25.40
2018-10-12T11:58:19.372Z,25.20
2018-10-12T12:00:48.021Z,24.80
2018-10-12T12:03:17.050Z,25.20
2018-10-12T12:05:45.677Z,25.50
2018-10-12T12:08:14.310Z,25.60
2018-10-12T12:10:42.899Z,25.50
2018-10-12T12:13:11.547Z,25.50
2018-10-12T12:15:40.118Z,25.40
2018-10-12T12:18:08.780Z,25.40
2018-10-12T12:20:37.606Z,25.40
2018-10-12T12:23:06.362Z,25.10
2018-10-12T12:25:34.953Z,25.40
2018-10-12T12:28:03.607Z,25.50
2018-10-12T12:30:32.305Z,25.50
2018-10-12T12:33:00.915Z,25.50
2018-10-12T12:35:29.752Z,25.60
2018-10-12T12:37:58.073Z,25.80
2018-10-12T12:40:26.665Z,26.00
2018-10-12T12:42:55.456Z,25.70
2018-10-12T12:45:24.246Z,25.70
2018-10-12T12:47:53.011Z,25.70
2018-10-12T12:50:21.425Z,25.80
2018-10-12T12:52:50.002Z,26.30
2018-10-12T12:55:18.530Z,26.20
2018-10-12T12:57:47.065Z,25.90
2018-10-12T13:00:15.692Z,25.70
2018-10-12T13:02:44.300Z,25.70
2018-10-12T13:05:12.929Z,25.90
2018-10-12T13:07:41.574Z,25.90
2018-10-12T13:10:10.206Z,26.10
2018-10-12T13:12:38.777Z,26.10
2018-10-12T13:15:07.422Z,26.20
2018-10-12T13:17:36.123Z,26.30
2018-10-12T13:20:04.743Z,26.50
2018-10-12T13:22:33.305Z,26.80
2018-10-12T13:25:01.963Z,26.90
2018-10-12T13:27:30.601Z,26.70
2018-10-12T13:29:59.386Z,26.80
2018-10-12T13:32:27.936Z,26.50
2018-10-12T13:34:56.506Z,26.30
2018-10-12T13:37:25.170Z,26.50
2018-10-12T13:39:54.071Z,26.60
2018-10-12T13:42:22.622Z,26.50
2018-10-12T13:44:51.210Z,26.20
2018-10-12T13:47:19.776Z,26.40
2018-10-12T13:49:48.394Z,26.30
2018-10-12T13:52:17.055Z,26.10
2018-10-12T13:54:45.616Z,26.10
2018-10-12T13:57:14.187Z,26.00
2018-10-12T13:59:42.788Z,26.00
2018-10-12T14:02:11.445Z,26.00
2018-10-12T14:04:39.998Z,26.10
2018-10-12T14:07:08.533Z,25.90
2018-10-12T14:09:37.198Z,25.70
2018-10-12T14:12:05.787Z,25.60
2018-10-12T14:14:34.429Z,25.60
2018-10-12T14:17:02.986Z,25.30
2018-10-12T14:19:32.684Z,25.30
2018-10-12T14:22:01.314Z,25.10
2018-10-12T14:24:29.891Z,24.90
2018-10-12T14:26:58.455Z,24.60
2018-10-12T14:29:27.173Z,24.50
2018-10-12T14:31:55.861Z,24.40
2018-10-12T14:34:24.462Z,24.30
2018-10-12T14:36:53.030Z,24.20
2018-10-12T14:39:21.683Z,24.10
2018-10-12T14:41:50.267Z,24.10
2018-10-12T14:44:19.035Z,23.90
2018-10-12T14:46:47.633Z,23.80
2018-10-12T14:49:16.210Z,23.80
2018-10-12T14:51:44.820Z,23.70
2018-10-12T14:54:13.491Z,23.60
2018-10-12T14:56:42.147Z,23.40
2018-10-12T14:59:10.766Z,23.30
2018-10-12T15:01:39.397Z,23.20
2018-10-12T15:04:08.019Z,23.20
2018-10-12T15:06:36.684Z,23.10
2018-10-12T15:09:10.718Z,22.90
2018-10-12T15:11:39.491Z,22.80
2018-10-12T15:14:08.051Z,22.60
2018-10-12T15:16:36.628Z,22.50
2018-10-12T15:19:05.361Z,22.50
2018-10-12T15:21:33.976Z,22.50
2018-10-12T15:24:02.601Z,22.30
2018-10-12T15:26:31.334Z,22.30
2018-10-12T15:28:59.966Z,22.20
2018-10-12T15:31:28.644Z,22.20
2018-10-12T15:33:57.367Z,22.20
2018-10-12T15:36:25.879Z,22.20
2018-10-12T15:38:54.507Z,22.10
2018-10-12T15:41:23.219Z,22.10
2018-10-12T15:43:51.869Z,22.00
2018-10-12T15:46:20.459Z,21.70
2018-10-12T15:48:49.031Z,21.50
2018-10-12T15:51:17.642Z,21.20
2018-10-12T15:53:46.281Z,21.10
2018-10-12T15:56:14.867Z,20.80
2018-10-12T15:58:43.409Z,20.60
2018-10-12T16:01:11.998Z,20.50
2018-10-12T16:03:40.708Z,20.30
2018-10-12T16:06:09.355Z,20.10
2018-10-12T16:08:38.060Z,20.00
2018-10-12T16:11:06.621Z,19.90
2018-10-12T16:13:35.249Z,19.60
2018-10-12T16:16:03.909Z,19.40
2018-10-12T16:18:32.521Z,19.20
2018-10-12T16:21:01.147Z,19.10
2018-10-12T16:23:29.779Z,18.90
2018-10-12T16:26:20.402Z,18.70
2018-10-12T16:28:49.265Z,18.50
2018-10-12T16:31:17.865Z,18.30
2018-10-12T16:33:46.421Z,18.20
2018-10-12T16:36:15.143Z,18.00
2018-10-12T16:38:43.759Z,17.80
2018-10-12T16:41:12.416Z,17.60
2018-10-12T16:43:40.986Z,17.50
2018-10-12T16:46:09.569Z,17.40
2018-10-12T16:48:38.265Z,17.20
2018-10-12T16:51:07.166Z,17.00
2018-10-12T16:53:36.009Z,16.90
2018-10-12T16:56:04.607Z,16.80
2018-10-12T16:58:33.367Z,16.70
2018-10-12T17:01:02.022Z,16.50
2018-10-12T17:03:30.991Z,16.40
2018-10-12T17:05:59.582Z,16.20
2018-10-12T17:08:28.246Z,16.10
2018-10-12T17:10:56.962Z,16.10
2018-10-12T17:13:25.582Z,16.00
2018-10-12T17:15:54.161Z,15.80
2018-10-12T17:18:22.740Z,15.70
2018-10-12T17:20:51.402Z,15.50
2018-10-12T17:23:19.984Z,15.40
2018-10-12T17:25:48.627Z,15.30
2018-10-12T17:28:17.257Z,15.20
2018-10-12T17:30:45.823Z,15.10
2018-10-12T17:33:14.579Z,15.00
2018-10-12T17:35:43.146Z,15.00
2018-10-12T17:38:11.759Z,14.80
2018-10-12T17:40:40.372Z,14.80
2018-10-12T17:43:09.106Z,14.70
2018-10-12T17:45:37.757Z,14.60
2018-10-12T17:48:06.374Z,14.50
2018-10-12T17:50:35.135Z,14.30
2018-10-12T17:53:03.695Z,14.20
2018-10-12T17:55:32.234Z,14.20
2018-10-12T17:58:01.000Z,14.10
2018-10-12T18:00:29.679Z,14.00
2018-10-12T18:02:58.197Z,13.90
2018-10-12T18:05:26.914Z,13.80
2018-10-12T18:07:55.703Z,13.70
2018-10-12T18:10:24.445Z,13.60
2018-10-12T18:12:52.997Z,13.50
2018-10-12T18:15:21.725Z,13.50
2018-10-12T18:17:50.264Z,13.40
2018-10-12T18:20:18.913Z,13.30
2018-10-12T18:22:47.512Z,13.20
2018-10-12T18:25:16.103Z,13.20
2018-10-12T18:27:44.769Z,13.10
2018-10-12T18:30:13.450Z,13.10
2018-10-12T18:32:42.163Z,13.00
2018-10-12T18:35:10.749Z,12.90
2018-10-12T18:37:39.413Z,12.80
2018-10-12T18:40:08.098Z,12.80
2018-10-12T18:42:36.717Z,12.70
2018-10-12T18:45:05.622Z,12.50
2018-10-12T18:47:34.285Z,12.40
2018-10-12T18:50:02.921Z,12.40
2018-10-12T18:52:31.570Z,12.30
2018-10-12T18:55:00.097Z,12.30
2018-10-12T18:57:33.326Z,12.20
2018-10-12T19:00:03.450Z,12.20
2018-10-12T19:02:32.275Z,12.10
2018-10-12T19:05:01.140Z,12.00
2018-10-12T19:07:29.759Z,12.00
2018-10-12T19:09:58.394Z,11.90
2018-10-12T19:12:27.294Z,11.90
2018-10-12T19:14:55.948Z,11.90
2018-10-12T19:17:24.592Z,11.80
2018-10-12T19:19:54.211Z,11.70
2018-10-12T19:22:22.863Z,11.70
2018-10-12T19:24:51.511Z,11.60
2018-10-12T19:27:20.367Z,11.50
2018-10-12T19:29:49.016Z,11.50
2018-10-12T19:32:17.611Z,11.50
2018-10-12T19:34:46.362Z,11.40
2018-10-12T19:37:15.255Z,11.40
2018-10-12T19:39:43.931Z,11.30
2018-10-12T19:42:12.509Z,11.30
2018-10-12T19:44:41.116Z,11.20
2018-10-12T19:47:09.755Z,11.10
2018-10-12T19:49:38.440Z,11.00
2018-10-12T19:52:07.462Z,11.00
2018-10-12T19:54:36.156Z,11.00
2018-10-12T19:57:04.959Z,10.90
2018-10-12T19:59:33.645Z,10.80
2018-10-12T20:02:02.308Z,10.80
2018-10-12T20:04:30.923Z,10.70
2018-10-12T20:06:59.544Z,10.60
2018-10-12T20:09:28.561Z,10.60
2018-10-12T20:11:57.451Z,10.60
2018-10-12T20:14:26.292Z,10.50
2018-10-12T20:16:54.945Z,10.50
2018-10-12T20:19:23.582Z,10.50
2018-10-12T20:21:52.332Z,10.50
2018-10-12T20:24:20.881Z,10.40
2018-10-12T20:26:49.750Z,10.40
2018-10-12T20:29:18.392Z,10.40
2018-10-12T20:31:47.062Z,10.30
2018-10-12T20:34:15.625Z,10.30
2018-10-12T20:36:44.211Z,10.20
2018-10-12T20:39:12.935Z,10.20
2018-10-12T20:41:41.470Z,10.10
2018-10-12T20:44:10.437Z,10.10
2018-10-12T20:46:39.314Z,10.00
2018-10-12T20:49:08.035Z,9.90
2018-10-12T20:51:37.373Z,9.90
2018-10-12T20:54:06.338Z,9.80
2018-10-12T20:56:34.922Z,9.80
2018-10-12T20:59:03.500Z,9.80
2018-10-12T21:01:32.076Z,9.70
2018-10-12T21:04:00.702Z,9.70
2018-10-12T21:06:29.221Z,9.70
2018-10-12T21:08:57.830Z,9.60
2018-10-12T21:11:26.450Z,9.60
2018-10-12T21:13:55.049Z,9.60
2018-10-12T21:16:23.754Z,9.50
2018-10-12T21:18:52.311Z,9.50
2018-10-12T21:21:20.934Z,9.50
2018-10-12T21:23:49.666Z,9.50
2018-10-12T21:26:18.233Z,9.50
2018-10-12T21:28:46.927Z,9.40
2018-10-12T21:31:15.637Z,9.30
2018-10-12T21:33:44.298Z,9.30
2018-10-12T21:36:12.990Z,9.30
2018-10-12T21:38:41.546Z,9.20
2018-10-12T21:41:10.188Z,9.20
2018-10-12T21:43:38.720Z,9.20
2018-10-12T21:46:07.406Z,9.10
2018-10-12T21:48:36.001Z,9.10
2018-10-12T21:51:04.558Z,9.00
2018-10-12T21:53:33.255Z,9.00
2018-10-12T21:56:01.867Z,9.00
2018-10-12T21:58:30.410Z,8.90
2018-10-12T22:01:05.809Z,8.90
2018-10-12T22:03:36.122Z,8.90
2018-10-12T22:06:05.081Z,8.80
2018-10-12T22:08:38.787Z,8.80
2018-10-12T22:11:07.389Z,8.80
2018-10-12T22:13:36.768Z,8.70
2018-10-12T22:16:05.388Z,8.70
2018-10-12T22:18:34.067Z,8.70
2018-10-12T22:21:02.707Z,8.60
2018-10-12T22:23:31.339Z,8.60
2018-10-12T22:26:00.342Z,8.60
2018-10-12T22:28:28.934Z,8.60
2018-10-12T22:30:57.483Z,8.50
2018-10-12T22:33:26.009Z,8.50
2018-10-12T22:35:54.829Z,8.50
2018-10-12T22:38:23.493Z,8.50
2018-10-12T22:40:52.413Z,8.40
2018-10-12T22:43:20.974Z,8.40
2018-10-12T22:45:49.494Z,8.40
2018-10-12T22:48:18.061Z,8.40
2018-10-12T22:50:46.602Z,8.40
2018-10-12T22:53:15.206Z,8.40
2018-10-12T22:55:43.743Z,8.30
2018-10-12T22:58:12.317Z,8.30
2018-10-12T23:00:40.866Z,8.20
2018-10-12T23:03:09.513Z,8.20
2018-10-12T23:05:38.044Z,8.20
2018-10-12T23:08:06.966Z,8.10
2018-10-12T23:10:35.561Z,8.10
2018-10-12T23:13:04.090Z,8.10
2018-10-12T23:15:32.666Z,8.00
2018-10-12T23:18:01.186Z,8.00
2018-10-12T23:20:29.722Z,7.90
2018-10-12T23:22:58.451Z,7.90
2018-10-12T23:25:27.033Z,7.80
2018-10-12T23:27:55.613Z,7.80
2018-10-12T23:30:24.296Z,7.80
2018-10-12T23:32:52.937Z,7.80
2018-10-12T23:35:21.483Z,7.80
2018-10-12T23:37:49.999Z,7.70
2018-10-12T23:40:18.645Z,7.70
2018-10-12T23:42:47.162Z,7.70
2018-10-12T23:45:15.920Z,7.60
2018-10-12T23:47:44.513Z,7.60
2018-10-12T23:50:13.207Z,7.60
2018-10-12T23:52:41.778Z,7.60
2018-10-12T23:55:10.342Z,7.60
2018-10-12T23:57:38.864Z,7.50
